Time;durP1;ratioP1;P1;durP2;ratioP2;P2;SDS_P1;SDS_P2;PMS_P1;PMS_P2;Temp;Humidity;BMP_temperature;BMP_pressure;BME280_temperature;BME280_humidity;BME280_pressure;Samples;Min_cycle;Max_cycle;Signal;HPM_P1;HPM_P2
2023/02/13 00:00:52;;;;;;;1.23;0.93;;;;;;;;;;5074580;28;20052;-70
2023/02/13 00:03:20;;;;;;;2.35;1.00;;;;;;;;;;5076635;28;20051;-70
2023/02/13 00:05:48;;;;;;;3.45;2.20;;;;;;;;;;5074885;28;20071;-69
2023/02/13 00:08:17;;;;;;;1.75;1.58;;;;;;;;;;5064425;28;20056;-70
2023/02/13 00:10:45;;;;;;;4.93;1.33;;;;;;;;;;5064629;28;20041;-70
2023/02/13 00:13:13;;;;;;;5.40;1.23;;;;;;;;;;5066938;28;20048;-69
2023/02/13 00:15:41;;;;;;;2.20;1.08;;;;;;;;;;5067179;28;20048;-69
2023/02/13 00:18:11;;;;;;;4.28;1.90;;;;;;;;;;5065771;28;20094;-69
2023/02/13 00:20:39;;;;;;;5.60;2.78;;;;;;;;;;5076452;28;20044;-69
2023/02/13 00:23:08;;;;;;;5.95;1.25;;;;;;;;;;5075777;28;20332;-69
2023/02/13 00:25:36;;;;;;;3.58;2.15;;;;;;;;;;5084580;28;20507;-70
2023/02/13 00:28:04;;;;;;;4.38;3.20;;;;;;;;;;5085206;28;20587;-69
2023/02/13 00:30:32;;;;;;;5.63;1.67;;;;;;;;;;5078967;28;20095;-69
2023/02/13 00:33:01;;;;;;;5.07;1.40;;;;;;;;;;5089386;28;20052;-70
2023/02/13 00:35:30;;;;;;;3.92;1.20;;;;;;;;;;5075920;28;20071;-69
2023/02/13 00:37:58;;;;;;;1.52;1.42;;;;;;;;;;5085924;28;20048;-69
2023/02/13 00:40:27;;;;;;;2.08;1.73;;;;;;;;;;5081680;28;20059;-69
2023/02/13 00:42:55;;;;;;;2.33;1.50;;;;;;;;;;5072716;28;20048;-70
2023/02/13 00:45:23;;;;;;;2.65;1.92;;;;;;;;;;5078498;28;20048;-70
2023/02/13 00:47:51;;;;;;;5.13;2.00;;;;;;;;;;5079914;28;20040;-70
2023/02/13 00:50:20;;;;;;;4.35;2.22;;;;;;;;;;5077351;28;20040;-69
2023/02/13 00:52:49;;;;;;;4.85;2.28;;;;;;;;;;5080336;28;20124;-70
2023/02/13 00:55:18;;;;;;;3.47;1.85;;;;;;;;;;5075137;28;20500;-70
2023/02/13 00:57:46;;;;;;;4.57;2.45;;;;;;;;;;5084928;28;20485;-70
2023/02/13 01:00:15;;;;;;;5.35;1.92;;;;;;;;;;5078451;28;20078;-70
2023/02/13 01:02:43;;;;;;;2.90;1.60;;;;;;;;;;5077390;28;20060;-70
2023/02/13 01:05:11;;;;;;;6.07;2.47;;;;;;;;;;5086471;28;20048;-70
2023/02/13 01:07:40;;;;;;;2.92;2.50;;;;;;;;;;5068640;28;20047;-70
2023/02/13 01:10:10;;;;;;;1.52;1.05;;;;;;;;;;5067168;28;20048;-70
2023/02/13 01:12:38;;;;;;;2.97;0.95;;;;;;;;;;5069934;28;20044;-69
2023/02/13 01:15:06;;;;;;;2.45;1.45;;;;;;;;;;5069072;28;20048;-70
2023/02/13 01:17:35;;;;;;;1.95;1.85;;;;;;;;;;5070300;28;20057;-69
2023/02/13 01:20:03;;;;;;;0.93;0.73;;;;;;;;;;5078729;28;20535;-69
2023/02/13 01:22:31;;;;;;;0.82;0.77;;;;;;;;;;5087890;28;20052;-70
2023/02/13 01:24:59;;;;;;;1.10;0.93;;;;;;;;;;5079778;28;20509;-69
2023/02/13 01:27:29;;;;;;;2.92;0.80;;;;;;;;;;5090852;28;20047;-69
2023/02/13 01:29:57;;;;;;;2.08;1.23;;;;;;;;;;5092271;28;20039;-70
2023/02/13 01:32:26;;;;;;;4.38;2.45;;;;;;;;;;5083244;28;20044;-69
2023/02/13 01:34:54;;;;;;;3.30;2.15;;;;;;;;;;5083138;28;20051;-69
2023/02/13 01:37:22;;;;;;;3.70;1.73;;;;;;;;;;5083413;28;20493;-70
2023/02/13 01:39:53;;;;;;;2.45;2.13;;;;;;;;;;5086739;28;20477;-69
2023/02/13 01:42:23;;;;;;;3.80;1.95;;;;;;;;;;5082851;28;20047;-69
2023/02/13 01:44:53;;;;;;;3.45;1.83;;;;;;;;;;5092339;28;20530;-70
2023/02/13 01:47:25;;;;;;;3.63;2.03;;;;;;;;;;5083334;28;20063;-69
2023/02/13 01:49:56;;;;;;;0.98;0.73;;;;;;;;;;5088084;28;20048;-69
2023/02/13 01:52:24;;;;;;;1.73;1.38;;;;;;;;;;5084263;28;20043;-69
2023/02/13 01:54:53;;;;;;;3.63;1.67;;;;;;;;;;5085315;28;20044;-70
2023/02/13 01:57:23;;;;;;;2.35;1.73;;;;;;;;;;5079867;28;20044;-69
2023/02/13 01:59:54;;;;;;;1.77;1.38;;;;;;;;;;5090455;28;20524;-69
2023/02/13 02:02:22;;;;;;;2.28;1.42;;;;;;;;;;5078702;28;20051;-69
2023/02/13 02:04:51;;;;;;;2.25;1.83;;;;;;;;;;5086658;28;20062;-69
2023/02/13 02:07:20;;;;;;;6.13;1.95;;;;;;;;;;5083207;28;20040;-70
2023/02/13 02:09:52;;;;;;;4.57;3.08;;;;;;;;;;5066551;28;20407;-70
2023/02/13 02:12:25;;;;;;;3.15;1.92;;;;;;;;;;5059571;28;20051;-69
2023/02/13 02:14:56;;;;;;;3.80;1.73;;;;;;;;;;5058428;28;20053;-70
2023/02/13 02:17:25;;;;;;;4.32;1.70;;;;;;;;;;5063944;28;20413;-69
2023/02/13 02:19:58;;;;;;;5.88;1.00;;;;;;;;;;5057894;28;20059;-70
2023/02/13 02:22:47;;;;;;;3.25;1.70;;;;;;;;;;5068899;28;20049;-70
2023/02/13 02:25:22;;;;;;;6.00;2.17;;;;;;;;;;5052940;28;20103;-70
2023/02/13 02:28:06;;;;;;;5.38;1.50;;;;;;;;;;5065980;28;20041;-69
2023/02/13 02:30:50;;;;;;;7.63;2.63;;;;;;;;;;5067135;28;20060;-70
2023/02/13 02:33:22;;;;;;;11.00;3.00;;;;;;;;;;5062122;28;20076;-70
2023/02/13 02:35:57;;;;;;;5.28;2.17;;;;;;;;;;5067939;28;20041;-70
2023/02/13 02:38:38;;;;;;;2.55;1.08;;;;;;;;;;5065770;28;20044;-69
2023/02/13 02:41:09;;;;;;;3.17;1.45;;;;;;;;;;5069618;28;20044;-70
2023/02/13 02:43:48;;;;;;;6.97;1.67;;;;;;;;;;5066539;28;20416;-70
2023/02/13 02:46:18;;;;;;;1.70;1.50;;;;;;;;;;5071498;28;20045;-69
2023/02/13 02:51:39;;;;;;;3.40;2.08;;;;;;;;;;5081826;28;20048;-69
2023/02/13 02:55:05;;;;;;;1.83;1.67;;;;;;;;;;5082901;28;20051;-70
2023/02/13 02:57:01;;;;;;;1.05;0.85;;;;;;;;;;5077882;28;20049;-69
2023/02/13 03:07:51;;;;;;;1.92;1.38;;;;;;;;;;5080554;28;20052;-69
2023/02/13 03:13:22;;;;;;;3.65;1.05;;;;;;;;;;5059392;28;20059;-69
2023/02/13 03:24:21;;;;;;;3.35;2.10;;;;;;;;;;5062406;28;20048;-69
2023/02/13 03:26:52;;;;;;;1.95;1.58;;;;;;;;;;5063695;28;20051;-69
2023/02/13 03:32:20;;;;;;;1.75;1.05;;;;;;;;;;5067935;28;20051;-69
2023/02/13 03:37:57;;;;;;;3.95;1.77;;;;;;;;;;5063889;28;20044;-69
2023/02/13 03:40:29;;;;;;;6.22;2.00;;;;;;;;;;5064242;28;20401;-69
2023/02/13 03:43:02;;;;;;;0.90;0.90;;;;;;;;;;5052235;28;20040;-70
2023/02/13 03:51:08;;;;;;;3.20;1.08;;;;;;;;;;5058906;28;20056;-69
2023/02/13 03:53:39;;;;;;;2.95;1.63;;;;;;;;;;5066178;28;20051;-70
2023/02/13 03:59:14;;;;;;;1.95;1.25;;;;;;;;;;5065877;28;20456;-69
2023/02/13 04:01:46;;;;;;;4.18;2.05;;;;;;;;;;5067953;28;20044;-69
2023/02/13 04:04:18;;;;;;;1.30;0.80;;;;;;;;;;5065094;28;20408;-69
2023/02/13 04:06:49;;;;;;;6.10;1.98;;;;;;;;;;5066448;28;20044;-69
2023/02/13 04:09:19;;;;;;;2.05;1.08;;;;;;;;;;5067860;28;20055;-69
2023/02/13 04:11:50;;;;;;;1.58;1.48;;;;;;;;;;5053745;28;20064;-70
2023/02/13 04:14:21;;;;;;;1.95;1.08;;;;;;;;;;5060431;28;20051;-69
2023/02/13 04:16:51;;;;;;;1.38;1.05;;;;;;;;;;5067786;28;20516;-69
2023/02/13 04:19:20;;;;;;;2.92;1.20;;;;;;;;;;5067273;28;20505;-69
2023/02/13 04:21:50;;;;;;;2.28;0.88;;;;;;;;;;5059845;28;20052;-70
2023/02/13 04:24:20;;;;;;;3.38;1.35;;;;;;;;;;5054143;28;20490;-69
2023/02/13 04:26:48;;;;;;;5.82;1.55;;;;;;;;;;5066177;28;20051;-69
2023/02/13 04:29:16;;;;;;;2.83;1.92;;;;;;;;;;5080156;28;20131;-69
2023/02/13 04:31:44;;;;;;;1.35;1.25;;;;;;;;;;5076503;28;20126;-69
2023/02/13 04:34:13;;;;;;;1.35;1.25;;;;;;;;;;5072311;28;20052;-69
2023/02/13 04:36:41;;;;;;;4.18;2.22;;;;;;;;;;5075524;28;20052;-69
2023/02/13 04:39:10;;;;;;;4.47;1.30;;;;;;;;;;5067791;28;20049;-70
2023/02/13 04:41:39;;;;;;;3.72;2.45;;;;;;;;;;5058933;28;20413;-69
2023/02/13 04:44:08;;;;;;;0.75;0.75;;;;;;;;;;5051190;28;20067;-69
2023/02/13 04:46:36;;;;;;;3.83;2.05;;;;;;;;;;5061281;28;20044;-69
2023/02/13 04:49:04;;;;;;;2.47;1.73;;;;;;;;;;5068798;28;20398;-69
2023/02/13 04:51:32;;;;;;;2.78;1.33;;;;;;;;;;5063287;28;20040;-69
2023/02/13 04:54:01;;;;;;;3.92;1.55;;;;;;;;;;5068252;28;20058;-69
2023/02/13 04:56:29;;;;;;;3.60;1.27;;;;;;;;;;5065571;28;20055;-69
2023/02/13 04:58:59;;;;;;;1.60;1.50;;;;;;;;;;5080816;28;20048;-69
2023/02/13 05:01:27;;;;;;;3.72;2.30;;;;;;;;;;5086577;28;20059;-69
2023/02/13 05:03:55;;;;;;;3.42;1.05;;;;;;;;;;5073733;28;20123;-69
2023/02/13 05:06:23;;;;;;;1.20;1.08;;;;;;;;;;5085510;28;20405;-69
2023/02/13 05:08:52;;;;;;;3.00;1.27;;;;;;;;;;5073622;28;20059;-69
2023/02/13 05:11:20;;;;;;;2.30;1.73;;;;;;;;;;5080517;28;20489;-69
2023/02/13 05:13:48;;;;;;;1.25;1.17;;;;;;;;;;5074009;28;20048;-70
2023/02/13 05:16:18;;;;;;;0.63;0.63;;;;;;;;;;5086176;28;20510;-69
2023/02/13 05:18:46;;;;;;;1.35;1.25;;;;;;;;;;5089083;28;20052;-69
2023/02/13 05:24:00;;;;;;;1.73;1.58;;;;;;;;;;5073069;28;20048;-70
2023/02/13 05:26:28;;;;;;;1.80;0.77;;;;;;;;;;5084966;28;20099;-69
2023/02/13 05:31:44;;;;;;;1.17;1.08;;;;;;;;;;5078057;28;20048;-69
2023/02/13 05:34:12;;;;;;;3.60;2.08;;;;;;;;;;5084975;28;20106;-69
2023/02/13 05:36:40;;;;;;;1.80;1.30;;;;;;;;;;5089060;28;20056;-69
2023/02/13 05:39:09;;;;;;;4.10;1.77;;;;;;;;;;5065115;28;20055;-70
2023/02/13 05:41:38;;;;;;;3.55;2.65;;;;;;;;;;5069103;28;20052;-69
2023/02/13 05:44:06;;;;;;;0.93;0.85;;;;;;;;;;5067769;28;20088;-69
2023/02/13 05:46:34;;;;;;;2.33;1.00;;;;;;;;;;5060699;28;20060;-70
2023/02/13 05:49:04;;;;;;;4.47;0.95;;;;;;;;;;5063811;28;20463;-69
2023/02/13 05:51:32;;;;;;;1.05;0.95;;;;;;;;;;5066808;28;20045;-69
2023/02/13 05:54:01;;;;;;;3.90;1.25;;;;;;;;;;5062236;28;20416;-69
2023/02/13 05:56:29;;;;;;;3.92;0.98;;;;;;;;;;5069693;28;20502;-71
2023/02/13 05:58:58;;;;;;;3.08;1.50;;;;;;;;;;5062314;28;20045;-69
2023/02/13 06:01:26;;;;;;;7.00;2.80;;;;;;;;;;5054891;28;20056;-69
2023/02/13 06:03:54;;;;;;;4.57;1.65;;;;;;;;;;5068370;28;20071;-69
2023/02/13 06:06:27;;;;;;;3.08;1.73;;;;;;;;;;5061339;28;20052;-69
2023/02/13 06:08:55;;;;;;;3.28;1.65;;;;;;;;;;5061680;28;20040;-69
2023/02/13 06:11:24;;;;;;;5.90;2.03;;;;;;;;;;5058212;28;20139;-69
2023/02/13 06:13:52;;;;;;;1.10;1.00;;;;;;;;;;5063984;28;20049;-69
2023/02/13 06:16:21;;;;;;;2.53;1.88;;;;;;;;;;5056117;28;20056;-68
2023/02/13 06:18:49;;;;;;;3.67;1.25;;;;;;;;;;5059039;28;20051;-69
2023/02/13 06:21:17;;;;;;;3.28;1.75;;;;;;;;;;5055716;28;20412;-69
2023/02/13 06:23:47;;;;;;;4.15;1.08;;;;;;;;;;5060894;28;20044;-69
2023/02/13 06:26:15;;;;;;;1.10;1.02;;;;;;;;;;5063584;28;20044;-69
2023/02/13 06:28:44;;;;;;;3.15;1.63;;;;;;;;;;5063809;28;20160;-69
2023/02/13 06:31:12;;;;;;;4.57;2.00;;;;;;;;;;5060690;28;20102;-69
2023/02/13 06:33:40;;;;;;;1.88;1.38;;;;;;;;;;5062986;28;20041;-69
2023/02/13 06:36:09;;;;;;;3.13;2.63;;;;;;;;;;5056687;28;20106;-69
2023/02/13 06:38:37;;;;;;;1.02;0.63;;;;;;;;;;5081860;28;20036;-69
2023/02/13 06:41:07;;;;;;;8.68;1.70;;;;;;;;;;5081061;28;20041;-69
2023/02/13 06:43:35;;;;;;;1.17;0.85;;;;;;;;;;5088210;28;20052;-69
2023/02/13 06:46:06;;;;;;;4.15;1.55;;;;;;;;;;5081952;28;20048;-69
2023/02/13 06:48:34;;;;;;;4.07;1.58;;;;;;;;;;5065627;28;20049;-69
2023/02/13 06:51:02;;;;;;;7.80;3.00;;;;;;;;;;5065783;28;20061;-69
2023/02/13 06:53:31;;;;;;;2.05;0.95;;;;;;;;;;5061660;28;20053;-69
2023/02/13 06:55:59;;;;;;;3.13;2.05;;;;;;;;;;5058570;28;20052;-69
2023/02/13 06:58:29;;;;;;;1.65;1.55;;;;;;;;;;5063748;28;20053;-69
2023/02/13 07:00:57;;;;;;;4.82;1.45;;;;;;;;;;5063200;28;20056;-69
2023/02/13 07:03:26;;;;;;;1.23;1.02;;;;;;;;;;5055007;28;20055;-69
2023/02/13 07:05:55;;;;;;;2.33;0.85;;;;;;;;;;5066024;28;20040;-69
2023/02/13 07:08:23;;;;;;;8.65;1.77;;;;;;;;;;5068740;28;20469;-69
2023/02/13 07:10:51;;;;;;;4.03;1.83;;;;;;;;;;5058702;28;20044;-69
2023/02/13 07:13:20;;;;;;;6.47;2.13;;;;;;;;;;5064545;28;20048;-69
2023/02/13 07:15:49;;;;;;;2.70;1.38;;;;;;;;;;5053938;28;20135;-69
2023/02/13 07:18:18;;;;;;;1.10;1.02;;;;;;;;;;5067608;28;20131;-69
2023/02/13 07:20:46;;;;;;;2.47;1.35;;;;;;;;;;5064642;28;20590;-69
2023/02/13 07:23:14;;;;;;;2.05;1.95;;;;;;;;;;5065525;28;20047;-69
2023/02/13 07:25:43;;;;;;;5.47;2.58;;;;;;;;;;5063618;28;20417;-69
2023/02/13 07:28:12;;;;;;;2.78;1.70;;;;;;;;;;5082665;28;20044;-69
2023/02/13 07:30:40;;;;;;;3.40;1.90;;;;;;;;;;5085646;28;20094;-70
2023/02/13 07:33:11;;;;;;;4.75;2.75;;;;;;;;;;5088698;28;20055;-69
2023/02/13 07:35:40;;;;;;;5.15;2.00;;;;;;;;;;5081156;28;20398;-69
2023/02/13 07:38:09;;;;;;;4.72;2.03;;;;;;;;;;5079840;28;20051;-69
2023/02/13 07:40:37;;;;;;;3.67;2.30;;;;;;;;;;5077468;28;20079;-69
2023/02/13 07:43:06;;;;;;;2.00;1.90;;;;;;;;;;5083303;28;20128;-69
2023/02/13 07:45:34;;;;;;;1.42;1.30;;;;;;;;;;5081032;28;20396;-69
2023/02/13 07:48:02;;;;;;;1.98;1.88;;;;;;;;;;5065818;28;20052;-69
2023/02/13 07:50:32;;;;;;;2.92;2.35;;;;;;;;;;5054814;28;20537;-69
2023/02/13 07:53:01;;;;;;;3.13;1.15;;;;;;;;;;5057944;28;20049;-69
2023/02/13 07:55:31;;;;;;;2.60;1.33;;;;;;;;;;5057805;28;20045;-69
2023/02/13 07:58:01;;;;;;;2.60;1.75;;;;;;;;;;5056416;28;20063;-69
2023/02/13 08:00:30;;;;;;;4.45;2.35;;;;;;;;;;5055787;28;20477;-69
2023/02/13 08:02:59;;;;;;;2.05;1.17;;;;;;;;;;5061910;28;20163;-69
2023/02/13 08:05:28;;;;;;;5.47;2.45;;;;;;;;;;5061604;28;20044;-69
2023/02/13 08:07:58;;;;;;;5.82;1.65;;;;;;;;;;5056663;28;20051;-69
2023/02/13 08:13:13;;;;;;;3.78;2.50;;;;;;;;;;5067297;28;20071;-69
2023/02/13 08:15:43;;;;;;;4.20;1.83;;;;;;;;;;5068695;28;20047;-69
2023/02/13 08:18:11;;;;;;;5.53;2.17;;;;;;;;;;5071464;28;20049;-70
2023/02/13 08:20:40;;;;;;;7.57;2.67;;;;;;;;;;5078584;28;20054;-69
2023/02/13 08:23:11;;;;;;;6.25;2.10;;;;;;;;;;5080212;28;20147;-70
2023/02/13 08:25:40;;;;;;;1.27;0.70;;;;;;;;;;5078269;28;20045;-70
2023/02/13 08:28:09;;;;;;;3.17;1.92;;;;;;;;;;5076933;28;20052;-69
2023/02/13 08:30:37;;;;;;;4.45;1.83;;;;;;;;;;5078693;28;20051;-69
2023/02/13 08:33:05;;;;;;;1.88;1.45;;;;;;;;;;5091574;28;20105;-69
2023/02/13 08:35:34;;;;;;;8.13;1.83;;;;;;;;;;5094221;28;20048;-70
2023/02/13 08:38:02;;;;;;;2.83;1.70;;;;;;;;;;5086553;28;20088;-69
2023/02/13 08:40:32;;;;;;;2.38;1.02;;;;;;;;;;5082338;28;20053;-70
2023/02/13 08:43:02;;;;;;;5.50;1.70;;;;;;;;;;5087450;28;20123;-69
2023/02/13 08:45:30;;;;;;;1.77;1.50;;;;;;;;;;5092966;28;20063;-69
2023/02/13 08:47:59;;;;;;;8.25;3.45;;;;;;;;;;5083667;28;20198;-70
2023/02/13 08:50:28;;;;;;;3.40;2.05;;;;;;;;;;5061550;28;20122;-70
2023/02/13 08:52:56;;;;;;;6.65;1.90;;;;;;;;;;5056944;28;20055;-70
2023/02/13 08:55:24;;;;;;;4.22;1.77;;;;;;;;;;5061654;28;20056;-69
2023/02/13 08:57:54;;;;;;;6.57;2.45;;;;;;;;;;5068643;28;20153;-69
2023/02/13 09:00:23;;;;;;;2.60;1.75;;;;;;;;;;5072947;28;20052;-69
2023/02/13 09:02:51;;;;;;;4.95;1.52;;;;;;;;;;5063013;28;20051;-69
2023/02/13 09:05:20;;;;;;;6.32;1.55;;;;;;;;;;5063702;28;20496;-70
2023/02/13 09:07:49;;;;;;;3.88;1.65;;;;;;;;;;5056604;28;20132;-70
2023/02/13 09:10:17;;;;;;;7.00;2.05;;;;;;;;;;5069552;28;20048;-70
2023/02/13 09:12:52;;;;;;;3.13;1.77;;;;;;;;;;5070689;28;20048;-69
2023/02/13 09:15:22;;;;;;;3.85;2.00;;;;;;;;;;5059521;28;20136;-70
2023/02/13 09:17:51;;;;;;;4.63;2.55;;;;;;;;;;5067110;28;20048;-69
2023/02/13 09:20:20;;;;;;;9.25;3.08;;;;;;;;;;5067723;28;20134;-69
2023/02/13 09:22:48;;;;;;;2.53;1.45;;;;;;;;;;5066678;28;20041;-69
2023/02/13 09:25:19;;;;;;;4.97;1.95;;;;;;;;;;5069522;28;20044;-69
2023/02/13 09:27:47;;;;;;;1.45;1.35;;;;;;;;;;5065414;28;20073;-69
2023/02/13 09:30:22;;;;;;;3.83;1.92;;;;;;;;;;5067278;28;20147;-69
2023/02/13 09:32:52;;;;;;;5.32;2.17;;;;;;;;;;5061455;28;20485;-69
2023/02/13 09:35:20;;;;;;;3.80;2.55;;;;;;;;;;5070026;28;20054;-69
2023/02/13 09:37:49;;;;;;;1.33;1.13;;;;;;;;;;5071511;28;20128;-69
2023/02/13 09:40:24;;;;;;;3.08;1.98;;;;;;;;;;5080548;28;20052;-69
2023/02/13 09:42:53;;;;;;;7.95;2.17;;;;;;;;;;5074303;28;20350;-69
2023/02/13 09:45:22;;;;;;;4.97;2.53;;;;;;;;;;5088676;28;20048;-69
2023/02/13 09:47:52;;;;;;;4.03;1.05;;;;;;;;;;5073255;28;20053;-69
2023/02/13 09:50:22;;;;;;;6.03;1.77;;;;;;;;;;5071038;28;20076;-69
2023/02/13 09:52:52;;;;;;;4.97;1.42;;;;;;;;;;5072110;28;20045;-69
2023/02/13 09:55:21;;;;;;;6.07;1.85;;;;;;;;;;5069166;28;20442;-69
2023/02/13 09:57:53;;;;;;;11.35;2.38;;;;;;;;;;5078004;28;20055;-70
2023/02/13 10:00:23;;;;;;;3.78;1.20;;;;;;;;;;5075284;28;20087;-70
2023/02/13 10:03:06;;;;;;;3.97;2.20;;;;;;;;;;5076194;28;20058;-70
2023/02/13 10:05:40;;;;;;;10.98;2.25;;;;;;;;;;5075640;28;20086;-70
2023/02/13 10:08:13;;;;;;;1.67;1.13;;;;;;;;;;5079016;28;20067;-69
2023/02/13 10:10:49;;;;;;;1.92;1.77;;;;;;;;;;5082473;28;20040;-69
2023/02/13 10:13:23;;;;;;;3.05;2.00;;;;;;;;;;5082920;28;20048;-70
2023/02/13 10:15:54;;;;;;;2.40;1.58;;;;;;;;;;5084429;28;20485;-69
2023/02/13 10:18:30;;;;;;;10.15;3.13;;;;;;;;;;5082023;28;20056;-69
2023/02/13 10:21:01;;;;;;;5.75;2.45;;;;;;;;;;5079646;28;20109;-69
2023/02/13 10:23:33;;;;;;;9.75;2.83;;;;;;;;;;5083349;28;20048;-69
2023/02/13 10:26:04;;;;;;;3.63;1.50;;;;;;;;;;5076377;28;20130;-69
2023/02/13 10:28:35;;;;;;;4.55;2.63;;;;;;;;;;5091478;28;20127;-69
2023/02/13 10:31:06;;;;;;;4.75;2.40;;;;;;;;;;5092705;28;20087;-69
2023/02/13 10:33:39;;;;;;;3.58;2.03;;;;;;;;;;5084574;28;20110;-69
2023/02/13 10:36:13;;;;;;;4.38;2.10;;;;;;;;;;5078904;28;20092;-69
2023/02/13 10:38:45;;;;;;;6.90;3.80;;;;;;;;;;5078283;28;20114;-69
2023/02/13 10:41:23;;;;;;;10.52;3.13;;;;;;;;;;5084550;28;20052;-69
2023/02/13 10:43:58;;;;;;;2.00;1.50;;;;;;;;;;5088588;28;20477;-69
2023/02/13 10:46:30;;;;;;;2.65;1.85;;;;;;;;;;5087052;28;20472;-69
2023/02/13 10:49:04;;;;;;;8.25;2.78;;;;;;;;;;5086855;28;20101;-69
2023/02/13 10:51:35;;;;;;;5.07;2.53;;;;;;;;;;5077600;28;20044;-69
2023/02/13 10:54:19;;;;;;;6.80;2.20;;;;;;;;;;5085140;28;20048;-69
2023/02/13 10:56:51;;;;;;;4.70;2.33;;;;;;;;;;5075302;28;20045;-68
2023/02/13 10:59:31;;;;;;;3.83;2.13;;;;;;;;;;5065574;28;20521;-69
2023/02/13 11:02:02;;;;;;;1.88;1.33;;;;;;;;;;5058820;28;20131;-69
2023/02/13 11:04:32;;;;;;;9.38;2.08;;;;;;;;;;5063946;28;20055;-69
2023/02/13 11:07:02;;;;;;;5.70;2.45;;;;;;;;;;5060530;28;20060;-69
2023/02/13 11:09:31;;;;;;;3.65;1.48;;;;;;;;;;5086639;28;20413;-69
2023/02/13 11:12:20;;;;;;;9.90;2.08;;;;;;;;;;5089679;28;20547;-69
2023/02/13 11:14:54;;;;;;;5.35;3.08;;;;;;;;;;5087320;28;20492;-69
2023/02/13 11:17:23;;;;;;;8.60;2.85;;;;;;;;;;5077174;28;20079;-69
2023/02/13 11:19:54;;;;;;;3.55;2.28;;;;;;;;;;5087662;28;20051;-70
2023/02/13 11:22:28;;;;;;;3.80;1.52;;;;;;;;;;5076830;28;20048;-71
2023/02/13 11:24:58;;;;;;;1.57;1.43;;;;;;;;;;5083034;28;20087;-70
2023/02/13 11:27:34;;;;;;;3.28;1.25;;;;;;;;;;5081854;28;20404;-70
2023/02/13 11:30:06;;;;;;;3.55;1.95;;;;;;;;;;5083790;28;20055;-70
2023/02/13 11:32:35;;;;;;;4.18;2.10;;;;;;;;;;5087089;28;20159;-69
2023/02/13 11:35:18;;;;;;;7.57;2.03;;;;;;;;;;5084493;28;20060;-69
2023/02/13 11:37:47;;;;;;;4.43;2.33;;;;;;;;;;5072049;28;20036;-69
2023/02/13 11:40:29;;;;;;;4.97;1.88;;;;;;;;;;5054131;28;20049;-69
2023/02/13 11:42:57;;;;;;;10.23;3.78;;;;;;;;;;5052629;28;20194;-69
2023/02/13 11:45:26;;;;;;;3.58;2.13;;;;;;;;;;5064648;28;20045;-69
2023/02/13 11:47:55;;;;;;;5.10;3.00;;;;;;;;;;5069392;28;20497;-69
2023/02/13 11:50:25;;;;;;;9.63;3.13;;;;;;;;;;5055679;28;20408;-69
2023/02/13 11:52:57;;;;;;;6.03;2.15;;;;;;;;;;5054968;28;20076;-69
2023/02/13 11:55:27;;;;;;;5.85;2.50;;;;;;;;;;5054423;28;20049;-69
2023/02/13 11:57:59;;;;;;;10.32;2.22;;;;;;;;;;5065088;28;20045;-69
2023/02/13 12:00:36;;;;;;;4.30;2.40;;;;;;;;;;5066769;28;20063;-69
2023/02/13 12:03:04;;;;;;;6.63;2.65;;;;;;;;;;5067895;28;20456;-69
2023/02/13 12:05:33;;;;;;;3.92;2.35;;;;;;;;;;5069027;28;20139;-70
2023/02/13 12:08:03;;;;;;;6.22;2.92;;;;;;;;;;5066231;28;20087;-69
2023/02/13 12:10:33;;;;;;;3.78;2.50;;;;;;;;;;5082719;28;20428;-69
2023/02/13 12:13:05;;;;;;;1.67;1.02;;;;;;;;;;5079679;28;20048;-69
2023/02/13 12:15:34;;;;;;;4.18;2.90;;;;;;;;;;5082183;28;20076;-69
2023/02/13 12:18:11;;;;;;;6.30;2.78;;;;;;;;;;5075782;28;20046;-69
2023/02/13 12:20:44;;;;;;;3.88;2.47;;;;;;;;;;5088029;28;20117;-69
2023/02/13 12:23:20;;;;;;;3.88;2.25;;;;;;;;;;5077146;28;20078;-69
2023/02/13 12:26:00;;;;;;;5.15;2.47;;;;;;;;;;5077607;28;20048;-68
2023/02/13 12:28:33;;;;;;;3.03;2.00;;;;;;;;;;5066778;28;20053;-68
2023/02/13 12:31:15;;;;;;;3.10;1.92;;;;;;;;;;5064979;28;20045;-69
2023/02/13 12:34:02;;;;;;;1.40;1.33;;;;;;;;;;5060071;28;20052;-69
2023/02/13 12:36:36;;;;;;;3.60;2.05;;;;;;;;;;5053322;28;20041;-69
2023/02/13 12:39:13;;;;;;;4.72;2.42;;;;;;;;;;5079031;28;20048;-69
2023/02/13 12:41:46;;;;;;;5.28;2.50;;;;;;;;;;5077996;28;20052;-69
2023/02/13 12:44:30;;;;;;;6.20;2.25;;;;;;;;;;5124210;27;20049;-69
2023/02/13 12:47:06;;;;;;;6.82;2.42;;;;;;;;;;5122233;28;20048;-69
2023/02/13 12:49:43;;;;;;;3.95;2.08;;;;;;;;;;5125423;27;20132;-69
2023/02/13 12:52:21;;;;;;;3.50;1.52;;;;;;;;;;5131390;28;20053;-69
2023/02/13 12:54:57;;;;;;;5.65;2.83;;;;;;;;;;5124928;27;20134;-69
2023/02/13 12:57:37;;;;;;;2.25;1.42;;;;;;;;;;5125356;28;20511;-69
2023/02/13 13:00:17;;;;;;;2.47;1.73;;;;;;;;;;5124334;27;20525;-70
2023/02/13 13:02:55;;;;;;;5.63;2.20;;;;;;;;;;5128546;27;20130;-69
2023/02/13 13:05:31;;;;;;;5.35;2.42;;;;;;;;;;5119110;28;20054;-68
2023/02/13 13:08:07;;;;;;;4.57;2.13;;;;;;;;;;5120336;28;20044;-69
2023/02/13 13:10:59;;;;;;;1.48;1.15;;;;;;;;;;5124206;27;20465;-70
2023/02/13 13:13:35;;;;;;;2.53;1.83;;;;;;;;;;5104555;28;20130;-70
2023/02/13 13:16:07;;;;;;;3.22;1.45;;;;;;;;;;5126226;28;20051;-70
2023/02/13 13:18:41;;;;;;;5.72;2.75;;;;;;;;;;5115036;28;20071;-70
2023/02/13 13:21:17;;;;;;;4.80;2.70;;;;;;;;;;5132279;27;20061;-70
2023/02/13 13:23:51;;;;;;;1.77;1.67;;;;;;;;;;5124520;27;20043;-69
2023/02/13 13:26:26;;;;;;;3.53;2.65;;;;;;;;;;5119067;27;20426;-70
2023/02/13 13:28:57;;;;;;;5.32;2.78;;;;;;;;;;5125289;27;20491;-70
2023/02/13 13:31:27;;;;;;;6.20;2.97;;;;;;;;;;5130163;27;20043;-70
2023/02/13 13:33:59;;;;;;;8.45;2.97;;;;;;;;;;5126700;27;20057;-70
2023/02/13 13:36:35;;;;;;;3.92;3.17;;;;;;;;;;5132664;27;20559;-70
2023/02/13 13:39:07;;;;;;;4.22;2.47;;;;;;;;;;5126621;27;20762;-70
2023/02/13 13:41:39;;;;;;;4.88;2.33;;;;;;;;;;5130990;27;20463;-70
2023/02/13 13:44:19;;;;;;;4.55;2.65;;;;;;;;;;5130196;27;20138;-69
2023/02/13 13:46:53;;;;;;;6.13;1.58;;;;;;;;;;5125649;27;20090;-69
2023/02/13 13:49:36;;;;;;;1.92;1.17;;;;;;;;;;5131265;27;20154;-70
2023/02/13 13:52:12;;;;;;;3.72;2.22;;;;;;;;;;5132493;27;20047;-70
2023/02/13 13:54:42;;;;;;;2.75;1.42;;;;;;;;;;5128787;27;20047;-70
2023/02/13 13:57:11;;;;;;;8.32;2.50;;;;;;;;;;5127565;27;20418;-70
2023/02/13 14:00:14;;;;;;;6.30;1.88;;;;;;;;;;5128335;27;20060;-69
2023/02/13 14:02:46;;;;;;;3.08;1.92;;;;;;;;;;5030706;28;20045;-70
2023/02/13 14:05:26;;;;;;;3.60;1.75;;;;;;;;;;5025259;28;20041;-69
2023/02/13 14:07:55;;;;;;;2.58;1.27;;;;;;;;;;5078898;27;20101;-69
2023/02/13 14:10:42;;;;;;;8.95;2.38;;;;;;;;;;5131559;27;20053;-70
2023/02/13 14:13:29;;;;;;;5.88;2.05;;;;;;;;;;5125440;27;20129;-70
2023/02/13 14:15:57;;;;;;;5.88;3.28;;;;;;;;;;5132078;27;20077;-70
2023/02/13 14:18:28;;;;;;;4.05;2.60;;;;;;;;;;5121015;27;20039;-70
2023/02/13 14:20:58;;;;;;;7.30;2.45;;;;;;;;;;5131594;27;20085;-70
2023/02/13 14:23:31;;;;;;;9.48;4.15;;;;;;;;;;5124092;27;20050;-70
2023/02/13 14:26:12;;;;;;;4.60;2.28;;;;;;;;;;5136415;27;20121;-71
2023/02/13 14:28:41;;;;;;;8.35;2.13;;;;;;;;;;5128540;27;20039;-73
2023/02/13 14:31:15;;;;;;;2.10;1.85;;;;;;;;;;5124644;27;20055;-71
2023/02/13 14:33:45;;;;;;;9.63;2.85;;;;;;;;;;5126694;27;20047;-70
2023/02/13 14:36:20;;;;;;;11.55;3.08;;;;;;;;;;5132503;27;20079;-71
2023/02/13 14:38:49;;;;;;;;;;;;;;;;;;5127705;27;20047;-71
2023/02/13 14:41:32;;;;;;;2.88;1.65;;;;;;;;;;5131248;27;20311;-70
2023/02/13 14:44:01;;;;;;;2.28;1.45;;;;;;;;;;5122674;27;20502;-71
2023/02/13 14:46:35;;;;;;;8.23;3.17;;;;;;;;;;5118785;27;20138;-71
2023/02/13 14:49:07;;;;;;;4.23;1.57;;;;;;;;;;5119964;27;20131;-70
2023/02/13 14:51:39;;;;;;;6.35;2.95;;;;;;;;;;5129396;27;20784;-71
2023/02/13 14:54:10;;;;;;;8.75;2.20;;;;;;;;;;5125940;27;20047;-71
2023/02/13 14:56:39;;;;;;;2.03;1.50;;;;;;;;;;5121816;27;20122;-71
2023/02/13 14:59:12;;;;;;;4.18;1.58;;;;;;;;;;5125094;27;20055;-71
2023/02/13 15:01:44;;;;;;;5.53;1.88;;;;;;;;;;5125357;27;20050;-71
2023/02/13 15:04:17;;;;;;;4.10;2.15;;;;;;;;;;5126183;27;20044;-71
2023/02/13 15:06:46;;;;;;;3.88;2.70;;;;;;;;;;5116093;27;20055;-70
2023/02/13 15:09:20;;;;;;;2.00;1.23;;;;;;;;;;5125595;27;20047;-71
2023/02/13 15:11:49;;;;;;;3.60;1.55;;;;;;;;;;5126373;27;20048;-71
2023/02/13 15:14:25;;;;;;;2.28;1.80;;;;;;;;;;5126954;27;20047;-70
2023/02/13 15:16:56;;;;;;;3.42;1.23;;;;;;;;;;5123987;27;20048;-71
2023/02/13 15:19:27;;;;;;;5.07;1.55;;;;;;;;;;5130361;27;20475;-71
2023/02/13 15:21:57;;;;;;;4.57;3.33;;;;;;;;;;5123978;27;20119;-70
2023/02/13 15:24:26;;;;;;;5.40;2.50;;;;;;;;;;5124497;27;20051;-70
2023/02/13 15:27:00;;;;;;;5.25;2.17;;;;;;;;;;5122578;27;20487;-70
2023/02/13 15:29:29;;;;;;;7.13;3.83;;;;;;;;;;5125736;27;20043;-71
2023/02/13 15:32:19;;;;;;;3.92;2.72;;;;;;;;;;5130385;27;20153;-71
2023/02/13 15:34:50;;;;;;;2.97;2.10;;;;;;;;;;5129484;27;20484;-70
2023/02/13 15:37:22;;;;;;;2.35;1.48;;;;;;;;;;5120041;27;20055;-70
2023/02/13 15:39:51;;;;;;;3.85;1.67;;;;;;;;;;5128991;27;20100;-70
2023/02/13 15:42:19;;;;;;;5.53;2.38;;;;;;;;;;5130808;27;20083;-71
2023/02/13 15:44:49;;;;;;;8.30;3.25;;;;;;;;;;5127028;27;20043;-70
2023/02/13 15:47:21;;;;;;;3.72;2.67;;;;;;;;;;5122018;27;20551;-70
2023/02/13 15:49:51;;;;;;;3.38;2.25;;;;;;;;;;5125150;27;20392;-70
2023/02/13 15:52:22;;;;;;;3.75;2.00;;;;;;;;;;5129080;27;20058;-71